createdAt,value
2024-01-03T00:01:08.816Z,7.11
2024-01-03T00:03:38.964Z,7.11
2024-01-03T00:06:09.643Z,7.09
2024-01-03T00:08:41.311Z,7.13
2024-01-03T00:11:12.923Z,7.17
2024-01-03T00:14:07.355Z,7.11
2024-01-03T00:16:41.570Z,7.09
2024-01-03T00:19:25.292Z,7.06
2024-01-03T00:21:55.288Z,7.04
2024-01-03T00:24:25.432Z,7.05
2024-01-03T00:26:55.659Z,7.02
2024-01-03T00:30:01.073Z,7.05
2024-01-03T00:32:41.903Z,7.06
2024-01-03T00:35:16.129Z,7.05
2024-01-03T00:37:46.507Z,7.02
2024-01-03T00:40:55.513Z,6.99
2024-01-03T00:43:25.974Z,7.08
2024-01-03T00:46:00.313Z,7.12
2024-01-03T00:48:33.496Z,7.19
2024-01-03T00:51:03.896Z,7.11
2024-01-03T00:53:34.752Z,7.06
2024-01-03T00:56:05.467Z,7.01
2024-01-03T00:58:35.762Z,7.00
2024-01-03T01:01:07.819Z,6.96
2024-01-03T01:03:42.969Z,6.94
2024-01-03T01:06:13.277Z,6.94
2024-01-03T01:08:43.368Z,7.00
2024-01-03T01:11:13.317Z,6.97
2024-01-03T01:13:43.666Z,6.98
2024-01-03T01:16:13.973Z,6.94
2024-01-03T01:18:46.586Z,7.01
2024-01-03T01:21:16.940Z,7.02
2024-01-03T01:23:47.295Z,7.01
2024-01-03T01:26:17.250Z,7.09
2024-01-03T01:28:47.740Z,7.00
2024-01-03T01:31:17.756Z,7.03
2024-01-03T01:33:50.452Z,7.04
2024-01-03T01:36:20.495Z,6.97
2024-01-03T01:38:50.491Z,6.97
2024-01-03T01:41:21.725Z,6.93
2024-01-03T01:43:51.661Z,6.90
2024-01-03T01:46:22.156Z,6.85
2024-01-03T01:48:56.909Z,6.89
2024-01-03T01:51:27.135Z,6.87
2024-01-03T01:53:57.386Z,6.84
2024-01-03T01:56:27.631Z,6.81
2024-01-03T01:58:58.061Z,6.81
2024-01-03T02:01:28.757Z,6.76
2024-01-03T02:04:01.756Z,6.77
2024-01-03T02:06:31.926Z,6.80
2024-01-03T02:09:02.117Z,6.77
2024-01-03T02:11:32.065Z,6.81
2024-01-03T02:14:02.025Z,6.80
2024-01-03T02:16:31.948Z,6.83
2024-01-03T02:19:05.940Z,6.81
2024-01-03T02:21:38.691Z,6.80
2024-01-03T02:24:08.985Z,6.82
2024-01-03T02:26:38.938Z,6.82
2024-01-03T02:29:08.945Z,6.75
2024-01-03T02:31:38.848Z,6.75
2024-01-03T02:34:08.895Z,6.76
2024-01-03T02:36:41.534Z,6.79
2024-01-03T02:39:11.836Z,6.77
2024-01-03T02:41:41.826Z,6.71
2024-01-03T02:44:11.754Z,6.67
2024-01-03T02:46:41.770Z,6.58
2024-01-03T02:49:13.700Z,6.51
2024-01-03T02:51:46.416Z,6.48
2024-01-03T02:54:16.421Z,6.44
2024-01-03T02:56:46.507Z,6.36
2024-01-03T02:59:16.558Z,6.34
2024-01-03T03:01:47.404Z,6.30
2024-01-03T03:04:17.436Z,6.38
2024-01-03T03:06:50.214Z,6.34
2024-01-03T03:09:20.325Z,6.31
2024-01-03T03:11:50.581Z,6.34
2024-01-03T03:14:20.544Z,6.40
2024-01-03T03:16:51.305Z,6.39
2024-01-03T03:19:21.436Z,6.33
2024-01-03T03:21:54.136Z,6.31
2024-01-03T03:24:24.067Z,6.31
2024-01-03T03:26:54.055Z,6.31
2024-01-03T03:29:23.999Z,6.29
2024-01-03T03:31:53.936Z,6.30
2024-01-03T03:34:24.122Z,6.25
2024-01-03T03:36:56.871Z,6.24
2024-01-03T03:39:26.817Z,6.19
2024-01-03T03:41:56.835Z,6.13
2024-01-03T03:44:26.831Z,6.11
2024-01-03T03:46:56.959Z,6.11
2024-01-03T03:49:27.009Z,6.08
2024-01-03T03:51:59.658Z,6.08
2024-01-03T03:54:29.666Z,6.13
2024-01-03T03:56:59.620Z,6.08
2024-01-03T03:59:29.634Z,6.07
2024-01-03T04:01:59.629Z,6.10
2024-01-03T04:04:29.760Z,6.07
2024-01-03T04:07:02.406Z,6.13
2024-01-03T04:09:32.840Z,6.10
2024-01-03T04:12:03.063Z,6.09
2024-01-03T04:14:33.064Z,6.11
2024-01-03T04:17:03.494Z,6.13
2024-01-03T04:19:33.478Z,6.14
2024-01-03T04:22:06.413Z,6.17
2024-01-03T04:24:36.816Z,6.17
2024-01-03T04:27:08.273Z,6.19
2024-01-03T04:29:38.449Z,6.21
2024-01-03T04:32:11.231Z,6.25
2024-01-03T04:34:42.159Z,6.26
2024-01-03T04:37:15.129Z,6.31
2024-01-03T04:39:45.145Z,6.33
2024-01-03T04:42:15.169Z,6.30
2024-01-03T04:44:46.455Z,6.33
2024-01-03T04:47:16.518Z,6.34
2024-01-03T04:49:46.530Z,6.40
2024-01-03T04:52:19.084Z,6.40
2024-01-03T04:54:49.099Z,6.34
2024-01-03T04:57:20.654Z,6.39
2024-01-03T04:59:51.158Z,6.41
2024-01-03T05:02:21.108Z,6.42
2024-01-03T05:04:51.119Z,6.41
2024-01-03T05:07:23.682Z,6.46
2024-01-03T05:09:53.719Z,6.49
2024-01-03T05:12:23.751Z,6.50
2024-01-03T05:14:53.807Z,6.50
2024-01-03T05:17:24.008Z,6.52
2024-01-03T05:19:54.055Z,6.51
2024-01-03T05:22:27.064Z,6.57
2024-01-03T05:24:57.718Z,6.51
2024-01-03T05:27:28.074Z,6.50
2024-01-03T05:29:59.739Z,6.59
2024-01-03T05:32:30.086Z,6.52
2024-01-03T05:35:00.330Z,6.53
2024-01-03T05:37:32.892Z,6.49
2024-01-03T05:40:03.120Z,6.57
2024-01-03T05:42:35.898Z,6.57
2024-01-03T05:45:06.135Z,6.61
2024-01-03T05:47:36.182Z,6.58
2024-01-03T05:50:06.387Z,6.59
2024-01-03T05:52:39.191Z,6.59
2024-01-03T05:55:10.543Z,6.62
2024-01-03T05:57:40.477Z,6.61
2024-01-03T06:00:16.389Z,6.61
2024-01-03T06:02:47.067Z,6.57
2024-01-03T06:05:18.413Z,6.62
2024-01-03T06:07:51.214Z,6.60
2024-01-03T06:10:21.550Z,6.56
2024-01-03T06:12:51.744Z,6.58
2024-01-03T06:15:24.345Z,6.61
2024-01-03T06:17:55.732Z,6.60
2024-01-03T06:20:25.741Z,6.64
2024-01-03T06:22:58.337Z,6.64
2024-01-03T06:25:28.325Z,6.66
2024-01-03T06:27:58.374Z,6.65
2024-01-03T06:30:30.170Z,6.65
2024-01-03T06:33:00.711Z,6.55
2024-01-03T06:35:31.861Z,6.58
2024-01-03T06:38:05.552Z,6.57
2024-01-03T06:40:35.725Z,6.52
2024-01-03T06:43:05.764Z,6.48
2024-01-03T06:45:43.828Z,6.52
2024-01-03T06:48:14.938Z,6.52
2024-01-03T06:50:45.839Z,6.52
2024-01-03T06:53:18.591Z,6.52
2024-01-03T06:55:48.611Z,6.55
2024-01-03T06:58:22.036Z,6.57
2024-01-03T07:01:07.824Z,6.64
2024-01-03T07:03:37.975Z,6.64
2024-01-03T07:06:08.770Z,6.66
2024-01-03T07:08:41.577Z,6.69
2024-01-03T07:11:11.645Z,6.73
2024-01-03T07:13:42.123Z,6.71
2024-01-03T07:16:13.020Z,6.78
2024-01-03T07:18:43.086Z,6.81
2024-01-03T07:21:13.188Z,6.84
2024-01-03T07:23:45.784Z,6.87
2024-01-03T07:26:15.768Z,6.86
2024-01-03T07:28:46.614Z,6.86
2024-01-03T07:31:16.662Z,6.88
2024-01-03T07:33:46.712Z,6.92
2024-01-03T07:36:16.988Z,6.91
2024-01-03T07:38:49.678Z,6.99
2024-01-03T07:41:22.777Z,7.06
2024-01-03T07:43:52.855Z,7.11
2024-01-03T07:46:23.840Z,7.11
2024-01-03T07:48:54.066Z,7.15
2024-01-03T07:51:24.150Z,7.17
2024-01-03T07:54:14.674Z,7.22
2024-01-03T07:56:44.644Z,7.28
2024-01-03T07:59:14.648Z,7.30
2024-01-03T08:01:44.505Z,7.39
2024-01-03T08:04:14.519Z,7.43
2024-01-03T08:06:44.552Z,7.46
2024-01-03T08:09:17.243Z,7.48
2024-01-03T08:11:47.205Z,7.47
2024-01-03T08:14:17.479Z,7.52
2024-01-03T08:16:47.527Z,7.52
2024-01-03T08:19:18.185Z,7.51
2024-01-03T08:21:48.952Z,7.58
2024-01-03T08:24:21.740Z,7.57
2024-01-03T08:26:51.806Z,7.57
2024-01-03T08:29:22.141Z,7.64
2024-01-03T08:31:52.636Z,7.69
2024-01-03T08:34:22.600Z,7.72
2024-01-03T08:36:58.770Z,7.73
2024-01-03T08:39:32.147Z,7.72
2024-01-03T08:42:02.375Z,7.70
2024-01-03T08:44:32.725Z,7.72
2024-01-03T08:47:02.655Z,7.73
2024-01-03T08:49:33.043Z,7.75
2024-01-03T08:52:03.358Z,7.81
2024-01-03T08:54:36.063Z,7.89
2024-01-03T08:57:13.134Z,7.97
2024-01-03T08:59:44.902Z,8.01
2024-01-03T09:02:18.047Z,8.10
2024-01-03T09:04:47.995Z,8.14
2024-01-03T09:07:18.075Z,8.17
2024-01-03T09:09:50.640Z,8.25
2024-01-03T09:12:22.575Z,8.27
2024-01-03T09:14:52.645Z,8.31
2024-01-03T09:17:30.504Z,8.32
2024-01-03T09:20:00.764Z,8.40
2024-01-03T09:22:30.814Z,8.37
2024-01-03T09:25:12.850Z,8.36
2024-01-03T09:27:45.475Z,8.37
2024-01-03T09:30:16.467Z,8.33
2024-01-03T09:32:46.530Z,8.39
2024-01-03T09:35:16.513Z,8.37
2024-01-03T09:37:49.595Z,8.41
2024-01-03T09:40:22.640Z,8.49
2024-01-03T09:42:59.920Z,8.50
2024-01-03T09:45:32.114Z,8.60
2024-01-03T09:48:02.429Z,8.61
2024-01-03T09:50:39.850Z,8.60
2024-01-03T09:53:18.977Z,8.55
2024-01-03T09:55:52.068Z,8.51
2024-01-03T09:58:25.849Z,8.67
2024-01-03T10:00:58.792Z,8.81
2024-01-03T10:03:40.913Z,8.91
2024-01-03T10:06:17.782Z,8.99
2024-01-03T10:09:01.898Z,9.02
2024-01-03T10:11:34.989Z,9.14
2024-01-03T10:14:18.904Z,9.18
2024-01-03T10:16:49.597Z,9.15
2024-01-03T10:19:28.265Z,9.13
2024-01-03T10:22:10.096Z,9.10
2024-01-03T10:24:48.763Z,8.98
2024-01-03T10:27:21.464Z,8.90
2024-01-03T10:29:52.249Z,8.91
2024-01-03T10:32:32.558Z,9.10
2024-01-03T10:35:16.910Z,8.93
2024-01-03T10:37:49.838Z,8.90
2024-01-03T10:40:19.944Z,8.92
2024-01-03T10:42:56.918Z,8.93
2024-01-03T10:45:30.218Z,9.05
2024-01-03T10:48:01.990Z,9.32
2024-01-03T10:50:32.496Z,9.60
2024-01-03T10:53:12.145Z,9.75
2024-01-03T10:55:49.604Z,9.92
2024-01-03T10:58:25.048Z,10.26
2024-01-03T11:01:14.739Z,10.53
2024-01-03T11:03:53.433Z,10.74
2024-01-03T11:06:33.436Z,10.95
2024-01-03T11:09:04.010Z,11.18
2024-01-03T11:11:35.701Z,11.16
2024-01-03T11:14:29.104Z,11.01
2024-01-03T11:17:03.269Z,10.79
2024-01-03T11:19:38.820Z,10.59
2024-01-03T11:22:09.250Z,10.51
2024-01-03T11:24:57.411Z,10.57
2024-01-03T11:27:33.795Z,10.64
2024-01-03T11:30:06.603Z,10.69
2024-01-03T11:32:41.444Z,10.93
2024-01-03T11:35:16.384Z,11.18
2024-01-03T11:37:48.117Z,11.56
2024-01-03T11:40:28.451Z,11.52
2024-01-03T11:43:01.430Z,11.34
2024-01-03T11:45:36.124Z,11.28
2024-01-03T11:48:06.793Z,11.10
2024-01-03T11:50:37.310Z,11.01
2024-01-03T11:53:13.417Z,11.00
2024-01-03T11:55:55.998Z,10.98
2024-01-03T11:58:30.159Z,10.91
2024-01-03T12:01:17.674Z,10.80
2024-01-03T12:03:48.195Z,10.82
2024-01-03T12:06:21.752Z,10.78
2024-01-03T12:08:52.202Z,10.72
2024-01-03T12:11:22.411Z,10.68
2024-01-03T12:13:55.125Z,10.63
2024-01-03T12:16:48.939Z,10.58
2024-01-03T12:19:37.585Z,10.48
2024-01-03T12:22:08.920Z,10.60
2024-01-03T12:24:42.524Z,10.58
2024-01-03T12:27:13.277Z,10.65
2024-01-03T12:29:46.343Z,10.64
2024-01-03T12:32:20.640Z,10.71
2024-01-03T12:34:52.450Z,10.73
2024-01-03T12:37:22.588Z,10.69
2024-01-03T12:39:52.647Z,10.80
2024-01-03T12:42:28.813Z,10.81
2024-01-03T12:45:06.916Z,10.83
2024-01-03T12:47:39.680Z,10.80
2024-01-03T12:50:11.851Z,10.84
2024-01-03T12:52:43.610Z,10.87
2024-01-03T12:55:16.342Z,10.83
2024-01-03T12:57:46.439Z,10.82
2024-01-03T13:00:18.069Z,10.82
2024-01-03T13:02:50.799Z,10.87
2024-01-03T13:05:21.288Z,10.78
2024-01-03T13:07:51.499Z,10.83
2024-01-03T13:10:22.569Z,10.83
2024-01-03T13:12:53.436Z,10.79
2024-01-03T13:15:36.436Z,10.77
2024-01-03T13:18:11.425Z,10.74
2024-01-03T13:20:41.613Z,10.76
2024-01-03T13:23:11.976Z,10.73
2024-01-03T13:25:42.067Z,10.69
2024-01-03T13:28:12.367Z,10.69
2024-01-03T13:30:44.256Z,10.69
2024-01-03T13:33:17.464Z,10.60
2024-01-03T13:35:48.174Z,10.61
2024-01-03T13:38:18.487Z,10.61
2024-01-03T13:40:53.444Z,10.65
2024-01-03T13:43:25.057Z,10.61
2024-01-03T13:45:58.168Z,10.56
2024-01-03T13:48:31.763Z,10.44
2024-01-03T13:51:04.889Z,10.35
2024-01-03T13:53:36.198Z,10.33
2024-01-03T13:56:07.884Z,10.19
2024-01-03T13:58:47.159Z,10.11
2024-01-03T14:01:19.077Z,10.13
2024-01-03T14:03:52.294Z,10.06
2024-01-03T14:06:27.963Z,10.06
2024-01-03T14:09:01.412Z,9.99
2024-01-03T14:11:34.015Z,10.05
2024-01-03T14:14:07.368Z,9.93
2024-01-03T14:16:40.918Z,9.91
2024-01-03T14:19:14.102Z,9.86
2024-01-03T14:21:52.041Z,9.77
2024-01-03T14:24:32.695Z,9.64
2024-01-03T14:27:12.936Z,9.57
2024-01-03T14:29:48.376Z,9.54
2024-01-03T14:32:36.521Z,9.51
2024-01-03T14:35:23.929Z,9.38
2024-01-03T14:37:56.410Z,9.31
2024-01-03T14:40:32.844Z,9.22
2024-01-03T14:43:15.054Z,9.18
2024-01-03T14:45:59.432Z,9.07
2024-01-03T14:48:37.408Z,9.10
2024-01-03T14:51:10.848Z,9.01
2024-01-03T14:53:41.533Z,9.00
2024-01-03T14:56:12.120Z,8.96
2024-01-03T14:58:43.648Z,8.91
2024-01-03T15:01:20.152Z,8.86
2024-01-03T15:03:59.796Z,8.90
2024-01-03T15:06:32.448Z,8.84
2024-01-03T15:09:05.101Z,8.78
2024-01-03T15:11:46.415Z,8.73
2024-01-03T15:14:27.399Z,8.72
2024-01-03T15:16:57.479Z,8.62
2024-01-03T15:19:39.601Z,8.56
2024-01-03T15:22:17.046Z,8.51
2024-01-03T15:24:49.027Z,8.47
2024-01-03T15:27:19.029Z,8.47
2024-01-03T15:29:54.694Z,8.54
2024-01-03T15:32:40.232Z,8.54
2024-01-03T15:35:12.287Z,8.49
2024-01-03T15:37:54.350Z,8.45
2024-01-03T15:40:27.549Z,8.45
2024-01-03T15:42:59.584Z,8.60
2024-01-03T15:45:26.789Z,8.60
2024-01-03T15:47:57.471Z,8.54
2024-01-03T15:50:27.821Z,8.55
2024-01-03T15:53:15.729Z,8.53
2024-01-03T15:55:45.929Z,8.44
2024-01-03T16:01:21.569Z,8.43
2024-01-03T16:04:11.176Z,8.27
2024-01-03T16:07:10.219Z,8.28
2024-01-03T16:09:54.912Z,8.19
2024-01-03T16:12:40.568Z,8.14
2024-01-03T16:15:38.373Z,8.12
2024-01-03T16:18:14.935Z,8.11
2024-01-03T16:20:55.348Z,8.09
2024-01-03T16:23:33.184Z,8.05
2024-01-03T16:26:10.041Z,8.01
2024-01-03T16:29:16.085Z,7.99
2024-01-03T16:32:08.924Z,7.88
2024-01-03T16:34:51.151Z,7.95
2024-01-03T16:37:35.936Z,7.97
2024-01-03T16:40:14.686Z,7.90
2024-01-03T16:42:54.502Z,7.99
2024-01-03T16:45:27.776Z,8.21
2024-01-03T16:48:09.760Z,8.24
2024-01-03T16:50:44.562Z,8.39
2024-01-03T16:53:32.364Z,8.47
2024-01-03T16:56:05.495Z,8.47
2024-01-03T16:58:50.974Z,8.60
2024-01-03T17:04:38.137Z,8.71
2024-01-03T17:07:18.341Z,8.69
2024-01-03T17:10:08.232Z,8.75
2024-01-03T17:13:06.159Z,8.68
2024-01-03T17:15:52.187Z,8.63
2024-01-03T17:18:52.593Z,8.58
2024-01-03T17:21:44.970Z,8.59
2024-01-03T17:24:31.117Z,8.67
2024-01-03T17:33:27.269Z,8.71
2024-01-03T17:36:35.853Z,8.77
2024-01-03T17:39:26.339Z,8.90
2024-01-03T17:41:57.736Z,8.82
2024-01-03T17:44:55.301Z,8.93
2024-01-03T17:47:45.144Z,8.89
2024-01-03T17:50:36.977Z,8.93
2024-01-03T17:53:49.398Z,8.77
2024-01-03T17:56:35.654Z,8.82
2024-01-03T17:59:20.041Z,8.87
2024-01-03T18:02:09.039Z,8.84
2024-01-03T18:05:09.639Z,8.85
2024-01-03T18:07:49.770Z,8.89
2024-01-03T18:10:41.807Z,8.84
2024-01-03T18:13:17.845Z,8.85
2024-01-03T18:15:51.873Z,8.95
2024-01-03T18:18:44.106Z,8.98
2024-01-03T18:21:40.453Z,9.02
2024-01-03T18:24:16.479Z,8.98
2024-01-03T18:26:53.812Z,8.96
2024-01-03T18:29:44.491Z,8.79
2024-01-03T18:32:28.056Z,8.78
2024-01-03T18:35:09.815Z,8.76
2024-01-03T18:37:43.101Z,8.80
2024-01-03T18:40:31.621Z,8.83
2024-01-03T18:43:09.785Z,8.75
2024-01-03T18:46:06.556Z,8.66
2024-01-03T18:48:59.571Z,8.62
2024-01-03T18:54:04.113Z,8.61
2024-01-03T18:56:39.697Z,8.63
2024-01-03T18:59:16.360Z,8.61
2024-01-03T19:02:13.824Z,8.54
2024-01-03T19:05:21.134Z,8.48
2024-01-03T19:13:51.236Z,8.40
2024-01-03T19:16:23.169Z,8.56
2024-01-03T19:19:12.760Z,8.52
2024-01-03T19:22:01.141Z,8.49
2024-01-03T19:24:32.051Z,8.41
2024-01-03T19:27:23.838Z,8.38
2024-01-03T19:30:11.439Z,8.37
2024-01-03T19:33:28.468Z,8.39
2024-01-03T19:36:15.177Z,8.30
2024-01-03T19:39:02.475Z,8.31
2024-01-03T19:41:56.021Z,8.36
2024-01-03T19:44:34.464Z,8.51
2024-01-03T19:47:52.490Z,8.50
2024-01-03T19:50:36.421Z,8.57
2024-01-03T19:53:10.480Z,8.53
2024-01-03T19:55:48.107Z,8.49
2024-01-03T19:58:27.227Z,8.49
2024-01-03T20:01:17.711Z,8.55
2024-01-03T20:03:58.413Z,8.59
2024-01-03T20:06:40.585Z,8.60
2024-01-03T20:09:34.761Z,8.53
2024-01-03T20:12:12.944Z,8.54
2024-01-03T20:14:51.877Z,8.48
2024-01-03T20:17:48.009Z,8.37
2024-01-03T20:20:55.334Z,8.53
2024-01-03T20:23:54.364Z,8.51
2024-01-03T20:26:33.661Z,8.42
2024-01-03T20:29:12.813Z,8.42
2024-01-03T20:32:04.815Z,8.26
2024-01-03T20:35:12.031Z,8.18
2024-01-03T20:38:05.134Z,8.06
2024-01-03T20:40:42.696Z,8.08
2024-01-03T20:43:12.945Z,8.03
2024-01-03T20:46:11.787Z,8.03
2024-01-03T20:49:08.874Z,7.93
2024-01-03T20:51:51.222Z,7.92
2024-01-03T20:54:44.761Z,7.85
2024-01-03T20:57:31.942Z,7.83
2024-01-03T21:03:31.087Z,7.77
2024-01-03T21:06:19.999Z,7.68
2024-01-03T21:08:57.953Z,7.60
2024-01-03T21:11:38.142Z,7.53
2024-01-03T21:14:16.205Z,7.47
2024-01-03T21:16:55.734Z,7.59
2024-01-03T21:19:40.033Z,7.56
2024-01-03T21:22:11.501Z,7.49
2024-01-03T21:24:43.933Z,7.48
2024-01-03T21:27:44.860Z,7.58
2024-01-03T21:30:17.957Z,7.57
2024-01-03T21:33:03.624Z,7.52
2024-01-03T21:35:33.757Z,7.49
2024-01-03T21:38:03.889Z,7.45
2024-01-03T21:40:36.809Z,7.38
2024-01-03T21:43:12.187Z,7.39
2024-01-03T21:46:00.620Z,7.29
2024-01-03T21:48:43.192Z,7.39
2024-01-03T21:51:30.873Z,7.47
2024-01-03T21:54:08.374Z,7.53
2024-01-03T21:57:01.329Z,7.50
2024-01-03T21:59:51.432Z,7.59
2024-01-03T22:02:42.975Z,7.61
2024-01-03T22:05:21.656Z,7.65
2024-01-03T22:07:57.891Z,7.73
2024-01-03T22:10:55.362Z,7.78
2024-01-03T22:13:27.478Z,7.67
2024-01-03T22:16:00.280Z,7.73
2024-01-03T22:18:33.835Z,7.81
2024-01-03T22:21:08.225Z,7.84
2024-01-03T22:23:39.836Z,7.83
2024-01-03T22:26:10.172Z,7.83
2024-01-03T22:28:40.321Z,7.78
2024-01-03T22:31:18.396Z,7.79
2024-01-03T22:33:49.031Z,7.79
2024-01-03T22:36:22.352Z,7.69
2024-01-03T22:38:55.417Z,7.72
2024-01-03T22:41:25.659Z,7.73
2024-01-03T22:43:56.873Z,7.70
2024-01-03T22:46:31.794Z,7.67
2024-01-03T22:49:04.161Z,7.64
2024-01-03T22:51:34.242Z,7.65
2024-01-03T22:54:08.255Z,7.61
2024-01-03T22:56:44.488Z,7.67
2024-01-03T22:59:18.673Z,7.62
2024-01-03T23:01:51.908Z,7.65
2024-01-03T23:04:23.712Z,7.71
2024-01-03T23:06:56.790Z,7.76
2024-01-03T23:09:26.934Z,7.79
2024-01-03T23:11:57.037Z,7.70
2024-01-03T23:14:30.016Z,7.81
2024-01-03T23:17:14.432Z,7.73
2024-01-03T23:19:48.750Z,7.67
2024-01-03T23:22:19.099Z,7.75
2024-01-03T23:24:53.660Z,7.71
2024-01-03T23:27:35.389Z,7.72
2024-01-03T23:30:08.822Z,7.70
2024-01-03T23:32:48.621Z,7.76
2024-01-03T23:35:30.057Z,7.72
2024-01-03T23:38:13.078Z,7.72
2024-01-03T23:40:58.574Z,7.80
2024-01-03T23:43:37.527Z,7.97
2024-01-03T23:46:11.838Z,7.89
2024-01-03T23:49:05.210Z,7.84
2024-01-03T23:51:39.445Z,7.84
2024-01-03T23:54:22.518Z,7.83
2024-01-03T23:57:00.728Z,7.76
2024-01-03T23:59:54.703Z,7.76
